• Join FlightAware (Why Join?)
  • Login
  • US Flag 
Rudolph Flight #1: Arrived! 
04:25AM EST


 

Airport Tracker/Info


-or-


 

Live Flight TrackerFlight Track Log ✈ AAY844 ✈ 20-Jun-2014 ✈ KPIE - KSWF

Flight Track Log - Related Links

Times and Time Zones

All times are in EDT time to prevent confusion due to time zone crossing. See the AAY844 flight status page for this flight to view local times or setup timezone preferences in your user account.

Time Position Orientation Groundspeed Altitude Reporting Facility
EDT Latitude Longitude Course Direction KTS MPH feet Rate Location/Type
02:51PM 27.9333 -82.6833 North 154 177 600  Level Tampa TRACON
02:52PM 27.9500 -82.7000 319° Northwest 164 189 1,500 1,680 Climbing Tampa TRACON
02:53PM 28.0000 -82.6667 30° Northeast 239 275 3,000 1,200 Climbing Tampa TRACON
02:54PM 28.0833 -82.6667 360° North 302 348 3,900 960 Climbing Tampa TRACON
02:55PM 28.1500 -82.6667 360° North 289 333 5,000 2,160 Climbing Tampa TRACON
02:56PM 28.2333 -82.6833 350° North 285 328 8,300 2,160 Climbing Tampa TRACON
02:57PM 28.5957 -82.6479 North  Level FlightAware Approximate
02:58PM 28.4231 -82.6708 North 306 352 12,100  Level Jacksonville Center
02:59PM 28.5294 -82.6658 North 343 395 14,100 2,100 Climbing Jacksonville Center
03:00PM 28.6400 -82.6583 North 373 429 16,400 1,860 Climbing Jacksonville Center
03:01PM 28.7675 -82.6511 North 400 460 17,900 1,740 Climbing Jacksonville Center
03:02PM 28.8883 -82.6436 North 413 475 19,900 1,800 Climbing Jacksonville Center
03:03PM 29.0117 -82.6361 North 425 489 21,600 1,560 Climbing Jacksonville Center
03:04PM 29.1347 -82.6286 North 436 502 23,100 1,380 Climbing Jacksonville Center
03:05PM 29.2642 -82.6236 North 443 510 24,400 1,500 Climbing Jacksonville Center
03:06PM 29.3914 -82.6136 North 454 522 26,100 1,740 Climbing Jacksonville Center
03:07PM 29.5208 -82.6061 North 459 528 27,900 1,620 Climbing Jacksonville Center
03:08PM 29.6314 -82.5986 North 459 528 29,400 1,440 Climbing Jacksonville Center
03:09PM 29.7547 -82.5936 North 453 521 30,800 720 Climbing Jacksonville Center
03:10PM 29.8758 -82.5858 North 448 516 30,900  Climbing Jacksonville Center
03:11PM 29.9967 -82.5783 North 435 501 30,900  Level Jacksonville Center
03:12PM 30.1200 -82.5756 North 435 501 30,900  Level Jacksonville Center
03:13PM 30.2411 -82.5703 North 440 506 30,900  Level Jacksonville Center
03:14PM 30.3642 -82.5628 North 440 506 30,900  Level Jacksonville Center
03:15PM 30.4875 -82.5575 North 440 506 30,900  Level Jacksonville Center
03:16PM 30.6064 -82.5183 16° North 440 506 30,900  Level Jacksonville Center
03:17PM 30.7211 -82.4697 20° North 435 501 30,900  Level Jacksonville Center
03:18PM 30.8378 -82.4231 19° North 440 506 30,900  Level Jacksonville Center
03:19PM 30.9567 -82.3767 18° North 440 506 30,900  Level Jacksonville Center
03:20PM 31.0711 -82.3322 18° North 440 506 30,900  Level Jacksonville Center
03:21PM 31.1881 -82.2856 19° North 440 506 30,900  Level Jacksonville Center
03:22PM 31.3047 -82.2386 19° North 440 506 30,900  Level Jacksonville Center
03:23PM 31.4233 -82.1889 20° North 445 512 30,900  Level Jacksonville Center
03:24PM 31.5442 -82.1442 18° North 445 512 30,900  Level Jacksonville Center
03:25PM 31.6672 -82.0894 21° North 428 493 31,000  Climbing Jacksonville Center
03:26PM 31.7900 -82.0419 18° North 435 501 31,000  Level Jacksonville Center
03:27PM 31.9044 -81.9944 19° North 442 509 31,000  Level Jacksonville Center
03:28PM 32.0106 -81.9517 19° North 442 509 31,000  Level Jacksonville Center
03:29PM 32.1375 -81.8917 22° Northeast 447 514 31,000  Level Jacksonville Center
03:30PM 32.2519 -81.8386 21° North 447 514 31,000  Level Jacksonville Center
03:31PM 32.3558 -81.7858 23° Northeast 442 509 31,000  Level Jacksonville Center
03:32PM 32.4828 -81.7278 21° North 442 509 31,000  Level Jacksonville Center
03:33PM 32.5950 -81.6744 22° Northeast 442 509 31,000 -60 Level Jacksonville Center
03:34PM 32.7092 -81.6186 22° Northeast 430 495 30,900 -60 Descending Jacksonville Center
03:35PM 32.8233 -81.5625 22° Northeast 435 501 30,900  Level Jacksonville Center
03:36PM 32.9356 -81.5089 22° Northeast 435 501 30,900  Level Jacksonville Center
03:37PM 33.0497 -81.4528 22° Northeast 435 501 30,900 300 Level Jacksonville Center
03:38PM 33.1619 -81.3989 22° Northeast 435 501 31,600 900 Climbing Jacksonville Center
03:39PM 33.2717 -81.3447 22° Northeast 435 501 32,700 600 Climbing Jacksonville Center
03:40PM 33.3858 -81.2906 22° Northeast 430 495 32,900 60 Climbing Jacksonville Center
03:41PM 33.5000 -81.2336 23° Northeast 430 495 32,900  Level Jacksonville Center
03:42PM 33.6139 -81.1767 23° Northeast 435 501 32,900  Level Jacksonville Center
03:43PM 33.7031 -81.1350 21° North 435 501 32,900  Level Jacksonville Center
03:44PM 33.8253 -81.0675 25° Northeast 435 501 33,000  Climbing Jacksonville Center
03:45PM 33.9242 -80.9881 34° Northeast 428 493 32,900 -60 Descending Jacksonville Center
03:46PM 34.0147 -80.8908 42° Northeast 425 489 32,900  Level Jacksonville Center
03:47PM 34.1025 -80.7883 44° Northeast 436 502 32,900  Level Jacksonville Center
03:48PM 34.1947 -80.6883 42° Northeast 441 507 32,900  Level Jacksonville Center
03:49PM 34.2850 -80.5906 42° Northeast 435 501 32,900  Level Jacksonville Center
03:50PM 34.3747 -80.4875 43° Northeast 435 501 32,900  Level Jacksonville Center
03:52PM 34.5378 -80.3092 42° Northeast 438 504 33,000  Climbing Washington Center
03:53PM 34.6353 -80.2136 39° Northeast 438 504 33,000  Level Washington Center
03:54PM 34.7369 -80.1208 37° Northeast 443 510 33,000  Level Washington Center
03:55PM 34.8431 -80.0181 38° Northeast 448 516 33,000  Level Washington Center
03:56PM 34.9406 -79.9219 39° Northeast 448 516 33,000  Level Washington Center
03:57PM 35.0419 -79.8311 36° Northeast 448 516 33,000  Level Washington Center
03:58PM 35.1431 -79.7372 37° Northeast 453 521 33,000  Level Washington Center
03:59PM 35.2383 -79.6381 40° Northeast 453 521 33,000  Level Washington Center
04:00PM 35.3256 -79.5303 45° Northeast 441 507 33,000  Level Washington Center
04:01PM 35.4106 -79.4172 47° Northeast 441 507 33,000  Level Washington Center
04:02PM 35.4889 -79.3139 47° Northeast 452 520 33,000  Level Washington Center
04:03PM 35.5717 -79.2003 48° Northeast 452 520 33,000  Level Washington Center
04:04PM 35.6608 -79.0792 48° Northeast 447 514 33,000  Level Washington Center
04:05PM 35.7414 -78.9597 50° Northeast 447 514 33,000  Level Washington Center
04:06PM 35.8056 -78.8267 59° Northeast 447 514 33,000  Level Washington Center
04:07PM 35.8739 -78.6961 57° Northeast 447 514 33,000  Level Washington Center
04:08PM 35.9331 -78.5806 58° Northeast 447 514 33,000  Level Washington Center
04:09PM 36.0008 -78.4497 57° Northeast 447 514 33,000  Level Washington Center
04:10PM 36.0644 -78.3208 59° Northeast 441 507 33,000  Level Washington Center
04:11PM 36.1319 -78.1919 57° Northeast 441 507 33,000  Level Washington Center
04:12PM 36.1975 -78.0603 58° Northeast 441 507 33,000  Level Washington Center
04:13PM 36.2647 -77.9311 57° Northeast 441 507 33,000  Level Washington Center
04:14PM 36.3278 -77.7989 59° Northeast 441 507 33,000  Level Washington Center
04:15PM 36.3947 -77.6692 57° Northeast 441 507 33,000  Level Washington Center
04:16PM 36.4639 -77.5211 60° Northeast 441 507 33,000  Level Washington Center
04:17PM 36.5264 -77.3908 59° Northeast 441 507 33,000  Level Washington Center
04:18PM 36.5931 -77.2553 58° Northeast 441 507 33,000  Level Washington Center
04:19PM 36.6575 -77.1219 59° Northeast 441 507 33,000  Level Washington Center
04:20PM 36.7319 -76.9939 54° Northeast 441 507 33,000  Level Washington Center
04:21PM 36.8311 -76.9050 36° Northeast 435 501 33,000  Level Washington Center
04:22PM 36.9322 -76.8131 36° Northeast 435 501 33,000  Level Washington Center
04:23PM 37.0311 -76.7211 37° Northeast 441 507 33,000  Level Washington Center
04:24PM 37.1342 -76.6286 36° Northeast 441 507 33,000  Level Washington Center
04:25PM 37.2244 -76.5492 35° Northeast 446 513 33,000  Level Washington Center
04:26PM 37.3253 -76.4589 35° Northeast 446 513 33,000  Level Washington Center
04:27PM 37.4239 -76.3686 36° Northeast 446 513 33,000  Level Washington Center
04:28PM 37.5247 -76.2778 36° Northeast 446 513 33,000  Level Washington Center
04:29PM 37.6211 -76.1844 37° Northeast 441 507 33,000 -60 Level Washington Center
04:30PM 37.7342 -76.0881 34° Northeast 441 507 32,900  Descending Washington Center
04:31PM 37.8181 -76.0019 39° Northeast 435 501 33,000  Climbing Washington Center
04:32PM 37.9161 -75.9075 37° Northeast 435 501 33,000 -60 Level Washington Center
04:33PM 38.0292 -75.8131 33° Northeast 435 501 32,900  Descending Washington Center
04:34PM 38.1125 -75.7236 40° Northeast 435 501 33,000  Climbing Washington Center
04:35PM 38.2086 -75.6314 37° Northeast 435 501 33,000  Level Washington Center
04:36PM 38.3086 -75.5414 35° Northeast 435 501 33,000 -60 Level Washington Center
04:37PM 38.4169 -75.4778 25° Northeast 430 495 32,900 -60 Descending Washington Center
04:38PM 38.5294 -75.4378 16° North 416 479 32,900  Level Washington Center
04:39PM 38.6422 -75.3922 18° North 416 479 32,900  Level Washington Center
04:40PM 38.7567 -75.3442 18° North 416 479 33,000  Climbing Washington Center
04:41PM 38.8650 -75.2931 20° North 416 479 32,900 -60 Descending Washington Center
04:42PM 38.9775 -75.2497 17° North 421 484 32,900  Level Washington Center
04:43PM 39.0856 -75.1986 20° North 421 484 32,900  Level Washington Center
04:44PM 39.1853 -75.1150 33° Northeast 421 484 32,900  Level Washington Center
04:45PM 39.2786 -75.0125 40° Northeast 421 484 32,900 -120 Level Washington Center
04:46PM 39.3739 -74.9122 39° Northeast 432 497 32,700 -600 Descending Washington Center
04:47PM 39.4650 -74.8094 41° Northeast 432 497 31,800 -960 Descending Washington Center
04:48PM 39.5603 -74.7006 41° Northeast 437 503 30,800 -1,380 Descending Washington Center
04:49PM 39.6553 -74.5942 41° Northeast 437 503 29,100 -1,860 Descending Washington Center
04:51PM 39.8436 -74.3856 40° Northeast 448 516 25,700 -1,500 Descending New York Center
04:52PM 39.9447 -74.2744 40° Northeast 481 554 24,900 -420 Descending New York Center
04:53PM 40.0439 -74.1628 41° Northeast 476 548 24,900  Level New York Center
04:54PM 40.1453 -74.0483 41° Northeast 471 542 24,900  Level New York Center
04:55PM 40.2422 -73.9361 41° Northeast 470 541 24,900  Level New York Center
04:56PM 40.3408 -73.8261 40° Northeast 470 541 24,900  Level New York Center
04:57PM 40.4375 -73.7161 41° Northeast 470 541 25,000  Climbing New York Center
04:58PM 40.5297 -73.6081 42° Northeast 458 527 25,000 -480 Level New York Center
04:59PM 40.6828 -73.4306 41° Northeast 463 533 23,900 -1,320 Descending Boston Center
05:00PM 40.7750 -73.3219 42° Northeast 441 507 21,500 -1,920 Descending Boston Center
05:01PM 40.8544 -73.2311 41° Northeast 421 484 20,000 -780 Descending Boston Center
05:02PM 40.9506 -73.1739 24° Northeast 383 441 20,000 -540 Level Boston Center
05:03PM 41.0103 -73.1817 354° North 363 418 19,300 -1,080 Descending Boston Center
05:04PM 41.0947 -73.2225 340° North 357 411 18,500 -1,020 Descending Boston Center
05:05PM 41.1819 -73.2708 337° Northwest 344 396 17,200 -1,380 Descending Boston Center
05:06PM 41.2789 -73.3236 338° Northwest 338 389 15,700 -1,500 Descending Boston Center
05:07PM 41.3664 -73.3717 338° Northwest 333 383 14,200 -1,380 Descending Boston Center
05:08PM 41.4381 -73.4122 337° Northwest 333 383 13,200 -1,260 Descending Boston Center
05:09PM 41.5208 -73.4592 337° Northwest 329 379 11,900 -1,200 Descending Boston Center
05:10PM 41.6036 -73.5061 337° Northwest 304 350 10,800 -1,140 Descending Boston Center
05:11PM 41.6283 -73.5967 290° West 270 311 9,600 -1,500 Descending Boston Center
05:12PM 41.6447 -73.7014 282° West 269 310 7,800 -1,740 Descending Boston Center
05:13PM 41.6131 -73.7922 245° Southwest 271 312 6,100 -1,800 Descending Boston Center
05:14PM 41.5767 -73.8753 240° Southwest 263 303 4,100 -1,380 Descending Boston Center
05:16PM 41.5167 -74.0333 243° Southwest 154 177 1,600 -1,080 Descending New York TRACON
05:17PM 41.5167 -74.0833 270° West 133 153 700 -900 Descending New York TRACON